createdAt,value
2022-09-16T00:02:12.839Z,7.57
2022-09-16T00:08:18.454Z,8.50
2022-09-16T00:11:20.541Z,7.22
2022-09-16T00:14:23.075Z,8.80
2022-09-16T00:17:25.452Z,8.80
2022-09-16T00:20:27.957Z,7.78
2022-09-16T00:23:30.483Z,7.88
2022-09-16T00:26:33.035Z,7.32
2022-09-16T00:29:36.325Z,8.10
2022-09-16T00:32:38.690Z,7.68
2022-09-16T00:35:40.994Z,6.82
2022-09-16T00:41:45.578Z,8.32
2022-09-16T00:44:55.722Z,8.48
2022-09-16T00:48:06.402Z,11.63
2022-09-16T00:51:11.920Z,7.68
2022-09-16T00:54:17.420Z,6.95
2022-09-16T00:57:23.170Z,7.30
2022-09-16T01:00:26.176Z,8.15
2022-09-16T01:03:34.957Z,9.60
2022-09-16T01:06:41.444Z,9.38
2022-09-16T01:09:44.661Z,8.07
2022-09-16T01:12:58.571Z,7.13
2022-09-16T01:16:20.477Z,8.73
2022-09-16T01:19:31.906Z,9.57
2022-09-16T01:22:52.299Z,7.78
2022-09-16T01:26:19.332Z,7.65
2022-09-16T01:29:59.486Z,7.13
2022-09-16T01:33:33.683Z,9.02
2022-09-16T01:36:45.650Z,10.43
2022-09-16T01:40:03.789Z,7.05
2022-09-16T01:43:26.530Z,7.05
2022-09-16T01:46:35.661Z,10.13
2022-09-16T01:50:10.966Z,9.75
2022-09-16T01:53:28.200Z,10.18
2022-09-16T01:56:49.810Z,6.95
2022-09-16T02:00:01.062Z,8.32
2022-09-16T02:03:13.790Z,8.20
2022-09-16T02:06:21.989Z,9.52
2022-09-16T02:09:29.755Z,7.70
2022-09-16T02:12:35.515Z,8.05
2022-09-16T02:15:40.513Z,7.00
2022-09-16T02:18:45.438Z,9.00
2022-09-16T02:21:52.066Z,10.52
2022-09-16T02:24:54.254Z,8.50
2022-09-16T02:27:59.724Z,6.75
2022-09-16T02:31:06.484Z,8.05
2022-09-16T02:34:15.761Z,8.35
2022-09-16T02:37:24.045Z,6.95
2022-09-16T02:40:34.505Z,7.20
2022-09-16T02:43:37.308Z,6.50
2022-09-16T02:46:44.993Z,8.30
2022-09-16T02:49:59.795Z,8.25
2022-09-16T02:53:03.831Z,8.93
2022-09-16T02:56:15.688Z,7.25
2022-09-16T02:59:18.700Z,9.02
2022-09-16T03:02:21.498Z,10.27
2022-09-16T03:05:30.397Z,8.70
2022-09-16T03:08:34.336Z,7.72
2022-09-16T03:12:01.578Z,9.10
2022-09-16T03:15:03.562Z,7.57
2022-09-16T03:18:08.511Z,7.43
2022-09-16T03:21:49.292Z,8.55
2022-09-16T03:25:10.039Z,6.28
2022-09-16T03:28:21.208Z,8.80
2022-09-16T03:31:38.059Z,8.93
2022-09-16T03:35:07.060Z,8.82
2022-09-16T03:38:11.087Z,7.60
2022-09-16T03:41:14.959Z,9.38
2022-09-16T03:44:18.769Z,6.60
2022-09-16T03:47:21.074Z,9.65
2022-09-16T03:53:25.082Z,8.82
2022-09-16T03:56:27.167Z,6.38
2022-09-16T04:02:31.267Z,11.00
2022-09-16T04:05:33.306Z,8.23
2022-09-16T04:08:35.690Z,8.20
2022-09-16T04:11:37.786Z,9.77
2022-09-16T04:14:39.662Z,9.27
2022-09-16T04:17:41.566Z,7.72
2022-09-16T04:20:43.486Z,13.07
2022-09-16T04:23:45.807Z,11.13
2022-09-16T04:29:49.698Z,9.65
2022-09-16T04:32:56.238Z,9.43
2022-09-16T04:36:10.332Z,9.32
2022-09-16T04:39:12.534Z,9.57
2022-09-16T04:42:14.354Z,12.40
2022-09-16T04:45:16.649Z,8.50
2022-09-16T04:51:21.274Z,9.68
2022-09-16T04:54:23.170Z,11.38
2022-09-16T04:57:30.022Z,7.65
2022-09-16T05:00:31.959Z,7.60
2022-09-16T05:03:34.273Z,11.80
2022-09-16T05:06:39.431Z,7.70
2022-09-16T05:09:41.383Z,7.28
2022-09-16T05:12:46.706Z,9.70
2022-09-16T05:15:51.347Z,7.07
2022-09-16T05:18:56.037Z,8.13
2022-09-16T05:21:57.967Z,7.40
2022-09-16T05:24:59.939Z,8.50
2022-09-16T05:28:02.102Z,7.95
2022-09-16T05:31:14.258Z,9.40
2022-09-16T05:34:21.075Z,9.52
2022-09-16T05:37:23.354Z,8.15
2022-09-16T05:40:25.278Z,7.57
2022-09-16T05:43:27.401Z,8.30
2022-09-16T05:46:29.744Z,6.45
2022-09-16T05:49:31.724Z,6.78
2022-09-16T05:52:33.617Z,7.68
2022-09-16T05:55:35.598Z,7.65
2022-09-16T05:58:38.241Z,8.75
2022-09-16T06:01:40.593Z,9.82
2022-09-16T06:04:44.317Z,7.30
2022-09-16T06:07:46.279Z,7.32
2022-09-16T06:10:48.116Z,7.32
2022-09-16T06:13:54.756Z,10.07
2022-09-16T06:16:56.882Z,8.98
2022-09-16T06:19:58.709Z,8.27
2022-09-16T06:23:00.604Z,8.63
2022-09-16T06:26:04.855Z,9.73
2022-09-16T06:29:07.609Z,7.75
2022-09-16T06:32:11.672Z,11.05
2022-09-16T06:35:13.581Z,8.07
2022-09-16T06:38:15.400Z,7.57
2022-09-16T06:41:18.904Z,8.63
2022-09-16T06:44:20.741Z,8.88
2022-09-16T06:47:22.653Z,7.38
2022-09-16T06:50:24.487Z,10.27
2022-09-16T06:53:26.542Z,8.05
2022-09-16T06:56:28.557Z,8.60
2022-09-16T06:59:30.561Z,9.00
2022-09-16T07:02:32.478Z,9.05
2022-09-16T07:05:34.448Z,9.15
2022-09-16T07:08:37.701Z,8.95
2022-09-16T07:11:39.610Z,7.53
2022-09-16T07:14:41.446Z,9.52
2022-09-16T07:17:43.405Z,6.93
2022-09-16T07:20:45.348Z,8.05
2022-09-16T07:23:47.931Z,10.07
2022-09-16T07:26:49.815Z,8.27
2022-09-16T07:29:51.786Z,7.25
2022-09-16T07:32:53.983Z,5.85
2022-09-16T07:35:59.482Z,9.40
2022-09-16T07:39:01.870Z,8.38
2022-09-16T07:42:06.094Z,10.73
2022-09-16T07:45:08.853Z,8.68
2022-09-16T07:48:10.693Z,8.18
2022-09-16T07:51:17.929Z,7.80
2022-09-16T07:54:19.809Z,9.45
2022-09-16T07:57:22.347Z,7.25
2022-09-16T08:00:24.206Z,7.82
2022-09-16T08:03:26.435Z,12.95
2022-09-16T08:06:30.524Z,8.68
2022-09-16T08:09:44.246Z,7.78
2022-09-16T08:12:51.867Z,7.47
2022-09-16T08:15:54.031Z,9.30
2022-09-16T08:18:58.072Z,7.97
2022-09-16T08:21:59.966Z,6.72
2022-09-16T08:25:01.790Z,7.95
2022-09-16T08:28:04.625Z,6.10
2022-09-16T08:31:06.586Z,8.32
2022-09-16T08:34:08.579Z,5.82
2022-09-16T08:37:10.418Z,9.02
2022-09-16T08:40:16.221Z,5.72
2022-09-16T08:43:35.397Z,10.48
2022-09-16T08:46:49.465Z,7.40
2022-09-16T08:49:52.030Z,7.25
2022-09-16T08:52:57.618Z,5.38
2022-09-16T08:56:05.860Z,6.70
2022-09-16T09:02:31.855Z,6.05
2022-09-16T09:05:45.640Z,8.75
2022-09-16T09:09:22.350Z,7.20
2022-09-16T09:12:34.099Z,7.47
2022-09-16T09:15:59.435Z,9.20
2022-09-16T09:19:39.061Z,9.52
2022-09-16T09:22:59.250Z,8.88
2022-09-16T09:29:15.874Z,7.53
2022-09-16T09:32:26.935Z,7.22
2022-09-16T09:35:57.434Z,8.00
2022-09-16T09:39:29.654Z,6.55
2022-09-16T09:42:41.289Z,6.80
2022-09-16T09:45:55.099Z,8.60
2022-09-16T09:49:09.909Z,8.90
2022-09-16T09:52:21.250Z,6.18
2022-09-16T09:55:25.985Z,7.05
2022-09-16T09:58:41.002Z,6.57
2022-09-16T10:01:42.963Z,5.28
2022-09-16T10:04:45.307Z,5.53
2022-09-16T10:07:47.547Z,7.05
2022-09-16T10:14:02.902Z,5.80
2022-09-16T10:17:17.084Z,7.57
2022-09-16T10:20:25.142Z,9.75
2022-09-16T10:23:30.002Z,6.90
2022-09-16T10:26:40.799Z,6.85
2022-09-16T10:29:42.677Z,6.00
2022-09-16T10:33:02.377Z,5.78
2022-09-16T10:36:07.756Z,8.90
2022-09-16T10:39:23.528Z,6.03
2022-09-16T10:42:28.100Z,5.53
2022-09-16T10:45:36.531Z,4.55
2022-09-16T10:48:42.328Z,4.45
2022-09-16T11:03:23.901Z,5.18
2022-09-16T11:07:03.459Z,4.18
2022-09-16T11:10:23.041Z,6.47
2022-09-16T11:13:49.873Z,5.65
2022-09-16T11:17:10.439Z,5.57
2022-09-16T11:20:36.703Z,4.50
2022-09-16T11:27:22.058Z,3.65
2022-09-16T11:30:24.309Z,3.85
2022-09-16T11:36:51.127Z,4.22
2022-09-16T11:40:20.782Z,4.63
2022-09-16T11:43:41.659Z,4.47
2022-09-16T11:47:29.256Z,6.28
2022-09-16T11:50:45.375Z,4.57
2022-09-16T11:54:13.640Z,3.10
2022-09-16T11:57:22.697Z,4.43
2022-09-16T12:00:24.699Z,7.00
2022-09-16T12:06:50.950Z,4.53
2022-09-16T12:10:16.506Z,4.68
2022-09-16T12:13:42.421Z,4.38
2022-09-16T12:17:07.069Z,6.72
2022-09-16T12:20:29.388Z,4.43
2022-09-16T12:23:39.046Z,4.82
2022-09-16T12:27:06.959Z,5.95
2022-09-16T12:30:15.021Z,3.25
2022-09-16T12:33:24.343Z,5.07
2022-09-16T12:36:30.555Z,5.15
2022-09-16T12:39:35.602Z,6.10
2022-09-16T12:43:01.735Z,4.00
2022-09-16T12:46:28.722Z,5.97
2022-09-16T12:50:21.493Z,5.38
2022-09-16T12:53:41.078Z,4.10
2022-09-16T12:57:01.885Z,3.45
2022-09-16T13:00:10.537Z,4.28
2022-09-16T13:03:18.372Z,2.33
2022-09-16T13:06:30.920Z,3.38
2022-09-16T13:09:38.562Z,3.50
2022-09-16T13:12:49.178Z,6.45
2022-09-16T13:16:00.102Z,2.80
2022-09-16T13:19:27.327Z,3.75
2022-09-16T13:22:41.122Z,5.30
2022-09-16T13:25:56.317Z,3.92
2022-09-16T13:28:58.691Z,3.58
2022-09-16T13:32:02.260Z,3.65
2022-09-16T13:35:25.831Z,4.15
2022-09-16T13:38:39.802Z,3.42
2022-09-16T13:44:45.254Z,4.30
2022-09-16T13:47:50.987Z,2.67
2022-09-16T13:51:01.002Z,3.83
2022-09-16T13:54:03.068Z,3.95
2022-09-16T13:57:26.872Z,2.15
2022-09-16T14:01:04.130Z,2.92
2022-09-16T14:04:57.094Z,2.38
2022-09-16T14:08:04.901Z,5.50
2022-09-16T14:11:37.276Z,3.95
2022-09-16T14:14:47.279Z,3.70
2022-09-16T14:17:56.003Z,3.55
2022-09-16T14:21:02.076Z,4.88
2022-09-16T14:24:17.415Z,2.83
2022-09-16T14:27:28.987Z,2.85
2022-09-16T14:30:30.861Z,3.60
2022-09-16T14:33:56.594Z,6.85
2022-09-16T14:36:59.469Z,9.52
2022-09-16T14:40:11.721Z,4.40
2022-09-16T14:43:18.976Z,3.97
2022-09-16T14:46:20.945Z,4.32
2022-09-16T14:49:25.808Z,4.22
2022-09-16T14:52:30.263Z,3.72
2022-09-16T14:55:34.536Z,5.72
2022-09-16T14:58:37.034Z,4.03
2022-09-16T15:05:37.048Z,4.32
2022-09-16T15:08:52.992Z,4.40
2022-09-16T15:12:00.666Z,3.45
2022-09-16T15:15:15.598Z,3.75
2022-09-16T15:18:29.842Z,3.65
2022-09-16T15:21:35.307Z,2.70
2022-09-16T15:24:41.687Z,4.20
2022-09-16T15:27:43.536Z,3.03
2022-09-16T15:30:54.036Z,3.70
2022-09-16T15:33:57.164Z,1.88
2022-09-16T15:36:59.467Z,5.50
2022-09-16T15:40:22.623Z,2.92
2022-09-16T15:43:28.348Z,2.17
2022-09-16T15:46:30.415Z,3.13
2022-09-16T15:49:42.693Z,2.45
2022-09-16T15:52:54.678Z,2.75
2022-09-16T15:56:32.669Z,3.55
2022-09-16T15:59:58.619Z,1.95
2022-09-16T16:03:03.892Z,4.88
2022-09-16T16:06:06.311Z,3.10
2022-09-16T16:09:29.306Z,3.30
2022-09-16T16:12:31.219Z,2.97
2022-09-16T16:15:38.983Z,1.67
2022-09-16T16:18:43.178Z,1.88
2022-09-16T16:21:45.273Z,1.80
2022-09-16T16:27:49.147Z,2.50
2022-09-16T16:30:51.167Z,4.22
2022-09-16T16:33:53.045Z,3.03
2022-09-16T16:36:56.759Z,2.55
2022-09-16T16:39:58.701Z,1.05
2022-09-16T16:43:00.662Z,1.40
2022-09-16T16:46:02.674Z,1.65
2022-09-16T16:49:04.584Z,2.53
2022-09-16T16:52:07.125Z,0.70
2022-09-16T16:55:09.504Z,1.85
2022-09-16T16:58:11.480Z,1.33
2022-09-16T17:01:18.610Z,1.48
2022-09-16T17:04:21.051Z,2.40
2022-09-16T17:07:27.266Z,1.85
2022-09-16T17:10:45.174Z,1.05
2022-09-16T17:17:32.000Z,2.90
2022-09-16T17:20:34.004Z,1.25
2022-09-16T17:23:36.202Z,1.10
2022-09-16T17:29:42.536Z,1.63
2022-09-16T17:32:44.445Z,3.65
2022-09-16T17:35:46.644Z,1.38
2022-09-16T17:41:50.784Z,1.30
2022-09-16T17:44:52.706Z,0.65
2022-09-16T17:47:55.690Z,2.13
2022-09-16T17:50:58.309Z,2.33
2022-09-16T17:54:01.059Z,1.15
2022-09-16T17:57:03.549Z,1.98
2022-09-16T18:00:06.019Z,1.33
2022-09-16T18:03:14.064Z,1.40
2022-09-16T18:06:30.478Z,1.40
2022-09-16T18:09:32.343Z,0.93
2022-09-16T18:12:34.206Z,1.00
2022-09-16T18:15:36.011Z,1.23
2022-09-16T18:18:39.592Z,1.17
2022-09-16T18:21:41.583Z,1.38
2022-09-16T18:24:43.424Z,1.25
2022-09-16T18:27:45.266Z,1.40
2022-09-16T18:30:47.202Z,2.65
2022-09-16T18:33:51.836Z,3.58
2022-09-16T18:36:56.257Z,0.98
2022-09-16T18:39:58.103Z,3.38
2022-09-16T18:43:00.037Z,2.25
2022-09-16T18:46:15.190Z,2.78
2022-09-16T18:49:18.703Z,2.45
2022-09-16T18:52:20.781Z,2.65
2022-09-16T18:55:22.698Z,1.75
2022-09-16T18:58:24.947Z,1.23
2022-09-16T19:01:36.161Z,1.92
2022-09-16T19:04:40.308Z,2.63
2022-09-16T19:07:42.130Z,2.90
2022-09-16T19:10:44.868Z,3.40
2022-09-16T19:13:46.678Z,1.73
2022-09-16T19:16:50.707Z,3.22
2022-09-16T19:19:52.476Z,2.47
2022-09-16T19:22:54.350Z,2.60
2022-09-16T19:26:02.191Z,2.13
2022-09-16T19:29:07.990Z,2.47
2022-09-16T19:32:11.727Z,2.67
2022-09-16T19:35:13.641Z,4.65
2022-09-16T19:38:15.424Z,1.95
2022-09-16T19:41:19.226Z,3.20
2022-09-16T19:44:21.063Z,2.90
2022-09-16T19:47:23.019Z,2.22
2022-09-16T19:50:24.829Z,3.22
2022-09-16T19:53:27.064Z,3.03
2022-09-16T19:56:32.383Z,2.00
2022-09-16T19:59:34.205Z,2.83
2022-09-16T20:02:36.151Z,4.35
2022-09-16T20:05:38.082Z,3.20
2022-09-16T20:08:44.950Z,2.15
2022-09-16T20:11:48.076Z,1.92
2022-09-16T20:14:50.108Z,2.65
2022-09-16T20:17:51.919Z,2.00
2022-09-16T20:21:00.680Z,1.77
2022-09-16T20:24:05.331Z,1.75
2022-09-16T20:27:07.364Z,1.40
2022-09-16T20:30:09.688Z,4.45
2022-09-16T20:33:12.422Z,3.00
2022-09-16T20:36:15.879Z,2.28
2022-09-16T20:39:18.088Z,2.00
2022-09-16T20:42:19.914Z,2.20
2022-09-16T20:45:21.783Z,2.95
2022-09-16T20:48:23.952Z,2.47
2022-09-16T20:51:28.909Z,2.55
2022-09-16T20:54:32.945Z,2.00
2022-09-16T20:57:34.930Z,2.85
2022-09-16T21:00:36.786Z,1.85
2022-09-16T21:03:39.625Z,2.30
2022-09-16T21:06:41.610Z,1.67
2022-09-16T21:09:45.939Z,7.78
2022-09-16T21:12:47.858Z,1.92
2022-09-16T21:15:57.600Z,2.28
2022-09-16T21:19:01.349Z,2.67
2022-09-16T21:22:03.229Z,3.78
2022-09-16T21:25:05.781Z,2.90
2022-09-16T21:28:07.879Z,3.28
2022-09-16T21:31:19.918Z,2.92
2022-09-16T21:34:22.054Z,1.98
2022-09-16T21:37:23.974Z,3.60
2022-09-16T21:40:27.588Z,1.92
2022-09-16T21:43:33.267Z,2.45
2022-09-16T21:46:38.548Z,2.72
2022-09-16T21:49:40.421Z,3.28
2022-09-16T21:52:42.319Z,2.47
2022-09-16T21:55:46.773Z,3.72
2022-09-16T21:58:53.051Z,2.83
2022-09-16T22:01:56.759Z,5.70
2022-09-16T22:05:00.544Z,1.98
2022-09-16T22:08:03.250Z,1.90
2022-09-16T22:11:07.721Z,1.48
2022-09-16T22:14:10.461Z,3.28
2022-09-16T22:17:12.374Z,1.90
2022-09-16T22:20:14.310Z,1.65
2022-09-16T22:23:19.072Z,2.90
2022-09-16T22:26:22.691Z,2.17
2022-09-16T22:29:25.622Z,2.28
2022-09-16T22:32:27.704Z,1.75
2022-09-16T22:35:29.555Z,1.65
2022-09-16T22:38:31.563Z,2.47
2022-09-16T22:41:34.602Z,4.40
2022-09-16T22:44:36.659Z,1.52
2022-09-16T22:47:39.262Z,2.45
2022-09-16T22:50:41.082Z,3.28
2022-09-16T22:53:44.103Z,2.63
2022-09-16T22:56:45.888Z,3.70
2022-09-16T22:59:47.706Z,3.25
2022-09-16T23:02:49.486Z,2.97
2022-09-16T23:05:57.278Z,3.05
2022-09-16T23:09:01.017Z,2.67
2022-09-16T23:12:04.160Z,2.97
2022-09-16T23:15:06.529Z,2.58
2022-09-16T23:18:09.739Z,1.23
2022-09-16T23:21:17.066Z,2.50
2022-09-16T23:24:21.215Z,2.33
2022-09-16T23:27:23.052Z,2.28
2022-09-16T23:30:24.993Z,1.90
2022-09-16T23:33:28.492Z,4.07
2022-09-16T23:36:30.397Z,1.90
2022-09-16T23:39:32.273Z,2.28
2022-09-16T23:42:34.203Z,1.60
2022-09-16T23:45:36.535Z,1.55
2022-09-16T23:48:39.094Z,3.22
2022-09-16T23:51:40.923Z,3.40
2022-09-16T23:54:42.850Z,2.38
2022-09-16T23:57:44.698Z,1.88
